createdAt,value
2019-05-18T00:01:48.150Z,13.80
2019-05-18T00:04:16.769Z,13.80
2019-05-18T00:06:43.737Z,13.80
2019-05-18T00:09:10.695Z,13.80
2019-05-18T00:11:37.629Z,13.80
2019-05-18T00:14:04.614Z,13.70
2019-05-18T00:16:31.617Z,13.80
2019-05-18T00:18:58.572Z,13.70
2019-05-18T00:21:25.517Z,13.70
2019-05-18T00:23:52.485Z,13.70
2019-05-18T00:26:19.416Z,13.70
2019-05-18T00:28:46.461Z,13.70
2019-05-18T00:31:13.410Z,13.70
2019-05-18T00:33:40.341Z,13.60
2019-05-18T00:36:07.311Z,13.60
2019-05-18T00:38:34.250Z,13.60
2019-05-18T00:41:01.234Z,13.60
2019-05-18T00:43:28.199Z,13.50
2019-05-18T00:45:55.130Z,13.50
2019-05-18T00:48:22.081Z,13.60
2019-05-18T00:50:49.020Z,13.70
2019-05-18T00:53:15.965Z,13.70
2019-05-18T00:55:42.913Z,13.70
2019-05-18T00:58:09.883Z,12.50
2019-05-18T01:00:36.822Z,13.60
2019-05-18T01:03:03.779Z,13.60
2019-05-18T01:05:31.244Z,13.60
2019-05-18T01:07:58.177Z,13.60
2019-05-18T01:10:25.120Z,13.50
2019-05-18T01:12:52.091Z,13.50
2019-05-18T01:15:19.044Z,13.40
2019-05-18T01:17:56.886Z,13.50
2019-05-18T01:20:12.977Z,13.50
2019-05-18T01:22:39.922Z,13.50
2019-05-18T01:25:06.880Z,13.60
2019-05-18T01:27:33.852Z,12.30
2019-05-18T01:30:00.809Z,13.60
2019-05-18T01:32:28.142Z,13.60
2019-05-18T01:34:55.096Z,13.60
2019-05-18T01:37:22.042Z,11.10
2019-05-18T01:39:49.001Z,13.60
2019-05-18T01:42:15.969Z,13.50
2019-05-18T01:44:42.946Z,13.60
2019-05-18T01:47:09.890Z,13.60
2019-05-18T01:49:36.832Z,13.50
2019-05-18T01:52:04.025Z,13.50
2019-05-18T01:54:30.822Z,13.50
2019-05-18T01:56:57.796Z,13.40
2019-05-18T01:59:24.731Z,13.50
2019-05-18T02:01:51.697Z,13.40
2019-05-18T02:04:18.678Z,13.50
2019-05-18T02:06:47.395Z,13.50
2019-05-18T02:09:14.341Z,13.50
2019-05-18T02:11:41.297Z,13.40
2019-05-18T02:14:08.241Z,13.40
2019-05-18T02:16:41.514Z,13.40
2019-05-18T02:19:08.485Z,13.10
2019-05-18T02:21:35.417Z,13.40
2019-05-18T02:24:02.427Z,13.40
2019-05-18T02:26:29.351Z,13.40
2019-05-18T02:28:56.299Z,13.40
2019-05-18T02:31:23.286Z,13.40
2019-05-18T02:33:50.214Z,13.30
2019-05-18T02:36:17.167Z,13.40
2019-05-18T02:38:44.122Z,13.30
2019-05-18T02:41:11.389Z,13.30
2019-05-18T02:43:38.330Z,13.10
2019-05-18T02:46:05.303Z,13.10
2019-05-18T02:48:47.813Z,13.00
2019-05-18T02:50:59.198Z,12.90
2019-05-18T02:53:26.156Z,12.90
2019-05-18T02:55:53.116Z,15.00
2019-05-18T02:58:20.031Z,11.60
2019-05-18T03:00:46.965Z,12.70
2019-05-18T03:03:13.998Z,12.80
2019-05-18T03:05:41.133Z,12.70
2019-05-18T03:08:09.927Z,12.60
2019-05-18T03:10:36.905Z,12.60
2019-05-18T03:13:04.506Z,12.60
2019-05-18T03:15:31.563Z,12.60
2019-05-18T03:17:58.506Z,12.60
2019-05-18T03:20:25.442Z,10.80
2019-05-18T03:22:52.405Z,12.60
2019-05-18T03:25:19.361Z,11.80
2019-05-18T03:27:46.334Z,12.50
2019-05-18T03:30:13.330Z,12.60
2019-05-18T03:32:40.274Z,12.60
2019-05-18T03:35:07.220Z,12.60
2019-05-18T03:37:34.173Z,12.50
2019-05-18T03:40:01.125Z,12.50
2019-05-18T03:42:28.094Z,12.40
2019-05-18T03:44:55.017Z,12.40
2019-05-18T03:47:21.948Z,12.40
2019-05-18T03:49:48.900Z,12.40
2019-05-18T03:52:15.860Z,12.40
2019-05-18T03:54:42.792Z,12.50
2019-05-18T03:57:09.742Z,12.30
2019-05-18T03:59:36.690Z,12.40
2019-05-18T04:02:03.623Z,12.40
2019-05-18T04:04:30.545Z,12.40
2019-05-18T04:06:57.525Z,12.40
2019-05-18T04:09:24.687Z,12.30
2019-05-18T04:11:51.648Z,12.30
2019-05-18T04:14:18.579Z,12.30
2019-05-18T04:16:45.521Z,12.20
2019-05-18T04:19:12.460Z,12.20
2019-05-18T04:21:39.429Z,12.20
2019-05-18T04:24:06.368Z,12.30
2019-05-18T04:26:33.304Z,13.50
2019-05-18T04:29:00.253Z,12.30
2019-05-18T04:31:27.169Z,12.30
2019-05-18T04:33:54.097Z,12.30
2019-05-18T04:36:21.047Z,12.40
2019-05-18T04:38:47.966Z,12.40
2019-05-18T04:41:14.914Z,12.40
2019-05-18T04:43:41.902Z,12.40
2019-05-18T04:46:08.872Z,12.30
2019-05-18T04:48:35.817Z,12.30
2019-05-18T04:51:02.936Z,12.40
2019-05-18T04:53:29.851Z,12.40
2019-05-18T04:55:57.637Z,12.40
2019-05-18T04:58:24.583Z,12.50
2019-05-18T05:00:51.524Z,12.40
2019-05-18T05:03:18.460Z,12.40
2019-05-18T05:05:45.405Z,12.40
2019-05-18T05:08:12.385Z,12.40
2019-05-18T05:10:39.727Z,12.40
2019-05-18T05:13:06.686Z,12.40
2019-05-18T05:15:33.592Z,12.40
2019-05-18T05:18:00.701Z,12.40
2019-05-18T05:20:27.615Z,12.40
2019-05-18T05:22:54.537Z,12.40
2019-05-18T05:25:21.488Z,12.50
2019-05-18T05:27:48.450Z,12.50
2019-05-18T05:30:15.419Z,12.00
2019-05-18T05:32:42.356Z,12.40
2019-05-18T05:35:09.317Z,12.40
2019-05-18T05:37:36.267Z,10.80
2019-05-18T05:40:04.424Z,12.40
2019-05-18T05:42:31.629Z,12.80
2019-05-18T05:44:58.551Z,12.90
2019-05-18T05:47:25.472Z,13.00
2019-05-18T05:49:52.437Z,13.00
2019-05-18T05:52:19.359Z,12.40
2019-05-18T05:54:46.303Z,13.10
2019-05-18T05:57:13.267Z,13.10
2019-05-18T05:59:40.187Z,13.10
2019-05-18T06:02:07.140Z,13.20
2019-05-18T06:04:34.084Z,13.20
2019-05-18T06:07:01.003Z,13.20
2019-05-18T06:09:27.935Z,13.20
2019-05-18T06:11:56.265Z,13.30
2019-05-18T06:14:23.133Z,13.40
2019-05-18T06:16:50.041Z,13.50
2019-05-18T06:19:16.997Z,13.50
2019-05-18T06:21:43.931Z,13.60
2019-05-18T06:24:10.877Z,13.80
2019-05-18T06:26:37.821Z,14.00
2019-05-18T06:29:04.762Z,14.30
2019-05-18T06:31:31.689Z,14.50
2019-05-18T06:33:58.632Z,14.70
2019-05-18T06:36:25.558Z,14.80
2019-05-18T06:38:52.497Z,15.00
2019-05-18T06:41:19.513Z,15.10
2019-05-18T06:43:46.443Z,15.30
2019-05-18T06:46:13.368Z,15.30
2019-05-18T06:48:40.341Z,15.40
2019-05-18T06:51:07.895Z,15.70
2019-05-18T06:53:34.540Z,15.80
2019-05-18T06:56:01.498Z,15.80
2019-05-18T06:58:28.439Z,15.80
2019-05-18T07:00:55.363Z,15.80
2019-05-18T07:03:22.378Z,15.90
2019-05-18T07:05:49.288Z,16.00
2019-05-18T07:08:16.225Z,16.10
2019-05-18T07:10:43.177Z,16.20
2019-05-18T07:13:12.008Z,16.30
2019-05-18T07:15:38.956Z,16.50
2019-05-18T07:18:05.886Z,16.70
2019-05-18T07:20:32.825Z,16.80
2019-05-18T07:22:59.767Z,17.00
2019-05-18T07:25:26.747Z,17.20
2019-05-18T07:27:53.674Z,17.30
2019-05-18T07:30:20.609Z,17.30
2019-05-18T07:32:47.542Z,17.50
2019-05-18T07:35:14.482Z,17.70
2019-05-18T07:37:41.468Z,17.80
2019-05-18T07:40:08.417Z,17.90
2019-05-18T07:42:35.346Z,17.90
2019-05-18T07:45:02.370Z,18.00
2019-05-18T07:47:29.285Z,18.30
2019-05-18T07:49:56.215Z,18.50
2019-05-18T07:52:23.143Z,18.90
2019-05-18T07:54:50.135Z,19.00
2019-05-18T07:57:17.079Z,19.10
2019-05-18T07:59:43.987Z,19.40
2019-05-18T08:02:10.940Z,19.30
2019-05-18T08:04:39.796Z,19.60
2019-05-18T08:07:04.833Z,19.80
2019-05-18T08:09:31.809Z,19.90
2019-05-18T08:11:58.762Z,20.10
2019-05-18T08:14:27.226Z,20.10
2019-05-18T08:16:54.180Z,20.00
2019-05-18T08:19:21.104Z,20.00
2019-05-18T08:21:53.111Z,19.60
2019-05-18T08:24:14.995Z,19.50
2019-05-18T08:26:41.922Z,19.60
2019-05-18T08:29:08.864Z,19.60
2019-05-18T08:31:35.837Z,19.70
2019-05-18T08:34:02.749Z,19.60
2019-05-18T08:36:29.729Z,20.00
2019-05-18T08:38:56.664Z,20.40
2019-05-18T08:41:23.590Z,20.60
2019-05-18T08:43:50.509Z,20.40
2019-05-18T08:46:17.453Z,20.70
2019-05-18T08:48:44.398Z,21.10
2019-05-18T08:51:11.331Z,21.50
2019-05-18T08:53:38.268Z,21.80
2019-05-18T08:56:05.205Z,20.70
2019-05-18T08:58:32.119Z,21.90
2019-05-18T09:00:59.071Z,22.00
2019-05-18T09:03:26.028Z,20.40
2019-05-18T09:05:52.964Z,21.80
2019-05-18T09:08:19.915Z,21.90
2019-05-18T09:10:46.860Z,22.00
2019-05-18T09:13:13.768Z,22.10
2019-05-18T09:15:41.117Z,22.00
2019-05-18T09:18:08.048Z,21.90
2019-05-18T09:20:35.029Z,21.50
2019-05-18T09:23:01.956Z,22.00
2019-05-18T09:25:28.895Z,22.00
2019-05-18T09:27:55.817Z,22.30
2019-05-18T09:30:22.785Z,22.60
2019-05-18T09:32:49.721Z,22.50
2019-05-18T09:35:16.689Z,22.80
2019-05-18T09:37:43.653Z,23.10
2019-05-18T09:40:10.640Z,23.30
2019-05-18T09:42:37.575Z,23.70
2019-05-18T09:45:04.703Z,23.80
2019-05-18T09:47:31.629Z,23.80
2019-05-18T09:49:58.580Z,23.20
2019-05-18T09:52:43.478Z,24.20
2019-05-18T09:54:52.449Z,23.80
2019-05-18T09:57:19.409Z,23.90
2019-05-18T09:59:46.337Z,24.10
2019-05-18T10:02:13.281Z,24.30
2019-05-18T10:04:40.241Z,24.10
2019-05-18T10:07:07.236Z,24.30
2019-05-18T10:09:39.210Z,24.50
2019-05-18T10:12:01.160Z,24.20
2019-05-18T10:14:28.104Z,23.30
2019-05-18T10:16:56.434Z,23.30
2019-05-18T10:19:23.417Z,22.90
2019-05-18T10:21:50.532Z,23.30
2019-05-18T10:24:17.462Z,23.90
2019-05-18T10:26:44.403Z,24.20
2019-05-18T10:29:11.357Z,24.50
2019-05-18T10:31:38.304Z,24.90
2019-05-18T10:34:05.281Z,25.30
2019-05-18T10:36:32.235Z,25.00
2019-05-18T10:38:59.140Z,25.00
2019-05-18T10:41:26.162Z,23.90
2019-05-18T10:43:53.125Z,25.40
2019-05-18T10:46:20.134Z,26.00
2019-05-18T10:48:47.092Z,26.30
2019-05-18T10:51:14.080Z,26.30
2019-05-18T10:53:40.999Z,26.10
2019-05-18T10:56:08.010Z,26.60
2019-05-18T10:58:35.112Z,26.70
2019-05-18T11:01:02.029Z,27.00
2019-05-18T11:03:28.995Z,26.50
2019-05-18T11:05:55.957Z,26.60
2019-05-18T11:08:22.882Z,26.70
2019-05-18T11:10:49.893Z,27.00
2019-05-18T11:13:17.462Z,27.10
2019-05-18T11:15:43.799Z,27.10
2019-05-18T11:18:12.284Z,27.00
2019-05-18T11:20:39.275Z,26.80
2019-05-18T11:23:06.200Z,26.90
2019-05-18T11:25:33.156Z,27.00
2019-05-18T11:28:00.151Z,26.60
2019-05-18T11:30:27.098Z,26.70
2019-05-18T11:32:54.020Z,26.80
2019-05-18T11:35:20.960Z,27.00
2019-05-18T11:37:47.926Z,27.10
2019-05-18T11:40:14.921Z,27.30
2019-05-18T11:42:41.877Z,27.10
2019-05-18T11:45:08.848Z,27.20
2019-05-18T11:47:35.809Z,26.70
2019-05-18T11:50:03.097Z,27.50
2019-05-18T11:52:30.182Z,27.20
2019-05-18T11:54:57.016Z,27.50
2019-05-18T11:57:23.970Z,27.50
2019-05-18T11:59:50.924Z,27.70
2019-05-18T12:02:17.871Z,27.90
2019-05-18T12:04:44.890Z,27.90
2019-05-18T12:07:11.840Z,28.00
2019-05-18T12:09:38.787Z,28.00
2019-05-18T12:12:05.777Z,27.50
2019-05-18T12:14:32.698Z,28.10
2019-05-18T12:16:59.621Z,27.20
2019-05-18T12:19:27.170Z,27.00
2019-05-18T12:21:54.153Z,26.90
2019-05-18T12:24:21.121Z,27.20
2019-05-18T12:26:48.028Z,26.50
2019-05-18T12:29:14.985Z,27.50
2019-05-18T12:31:41.905Z,27.80
2019-05-18T12:34:08.884Z,27.50
2019-05-18T12:36:35.830Z,27.40
2019-05-18T12:39:03.688Z,27.50
2019-05-18T12:41:30.645Z,27.40
2019-05-18T12:43:57.678Z,27.50
2019-05-18T12:46:24.652Z,27.40
2019-05-18T12:48:51.592Z,27.30
2019-05-18T12:51:18.517Z,26.80
2019-05-18T12:53:45.489Z,26.30
2019-05-18T12:56:12.448Z,26.00
2019-05-18T12:58:39.409Z,25.30
2019-05-18T13:01:06.360Z,24.90
2019-05-18T13:03:33.283Z,24.50
2019-05-18T13:06:00.247Z,24.20
2019-05-18T13:08:27.169Z,22.10
2019-05-18T13:10:54.674Z,23.30
2019-05-18T13:13:21.494Z,23.00
2019-05-18T13:15:48.417Z,22.80
2019-05-18T13:18:15.380Z,22.60
2019-05-18T13:20:42.630Z,22.50
2019-05-18T13:23:09.552Z,22.30
2019-05-18T13:25:36.499Z,22.10
2019-05-18T13:28:03.435Z,22.10
2019-05-18T13:30:30.365Z,22.00
2019-05-18T13:32:57.326Z,21.90
2019-05-18T13:35:24.251Z,21.80
2019-05-18T13:37:51.224Z,21.70
2019-05-18T13:40:18.216Z,20.70
2019-05-18T13:42:45.199Z,21.40
2019-05-18T13:45:12.173Z,21.20
2019-05-18T13:47:39.144Z,20.90
2019-05-18T13:50:06.124Z,20.70
2019-05-18T13:52:33.081Z,18.80
2019-05-18T13:55:04.395Z,20.20
2019-05-18T13:57:27.156Z,20.00
2019-05-18T13:59:54.090Z,19.90
2019-05-18T14:02:21.061Z,19.70
2019-05-18T14:04:48.033Z,19.70
2019-05-18T14:07:14.955Z,18.40
2019-05-18T14:09:41.898Z,18.10
2019-05-18T14:12:08.868Z,19.00
2019-05-18T14:14:35.815Z,18.80
2019-05-18T14:17:03.238Z,18.50
2019-05-18T14:19:30.348Z,18.40
2019-05-18T14:21:58.557Z,18.30
2019-05-18T14:24:25.753Z,18.10
2019-05-18T14:26:52.696Z,18.00
2019-05-18T14:29:19.690Z,18.00
2019-05-18T14:31:46.672Z,18.00
2019-05-18T14:34:13.630Z,18.00
2019-05-18T14:36:40.564Z,18.00
2019-05-18T14:39:07.529Z,18.10
2019-05-18T14:41:34.453Z,18.10
2019-05-18T14:44:01.397Z,18.20
2019-05-18T14:46:28.394Z,18.40
2019-05-18T14:48:55.314Z,18.30
2019-05-18T14:51:22.287Z,18.20
2019-05-18T14:53:49.251Z,18.20
2019-05-18T14:56:16.249Z,18.30
2019-05-18T14:58:43.192Z,18.40
2019-05-18T15:01:10.159Z,18.30
2019-05-18T15:03:37.098Z,18.30
2019-05-18T15:06:04.024Z,18.40
2019-05-18T15:08:30.968Z,18.50
2019-05-18T15:10:57.912Z,18.70
2019-05-18T15:13:24.980Z,18.70
2019-05-18T15:15:51.915Z,18.50
2019-05-18T15:18:18.851Z,18.20
2019-05-18T15:20:45.787Z,18.30
2019-05-18T15:23:14.222Z,17.90
2019-05-18T15:25:50.098Z,17.60
2019-05-18T15:28:08.088Z,17.30
2019-05-18T15:30:35.080Z,17.40
2019-05-18T15:33:02.001Z,16.10
2019-05-18T15:35:28.968Z,17.60
2019-05-18T15:37:56.220Z,17.60
2019-05-18T15:40:23.110Z,17.80
2019-05-18T15:42:50.022Z,17.90
2019-05-18T15:45:16.984Z,17.70
2019-05-18T15:47:43.920Z,17.80
2019-05-18T15:50:10.903Z,17.70
2019-05-18T15:52:37.853Z,17.80
2019-05-18T15:55:04.849Z,17.80
2019-05-18T15:57:31.754Z,17.80
2019-05-18T15:59:58.705Z,17.90
2019-05-18T16:02:25.638Z,18.10
2019-05-18T16:04:52.579Z,18.10
2019-05-18T16:07:19.537Z,18.20
2019-05-18T16:09:46.477Z,18.10
2019-05-18T16:12:13.409Z,18.20
2019-05-18T16:14:40.343Z,18.20
2019-05-18T16:17:07.264Z,18.40
2019-05-18T16:19:34.208Z,18.40
2019-05-18T16:22:01.162Z,18.50
2019-05-18T16:24:28.702Z,18.70
2019-05-18T16:26:55.628Z,18.90
2019-05-18T16:29:22.581Z,18.90
2019-05-18T16:31:49.524Z,19.10
2019-05-18T16:34:16.477Z,19.30
2019-05-18T16:36:43.448Z,19.40
2019-05-18T16:39:10.364Z,19.60
2019-05-18T16:41:37.338Z,19.80
2019-05-18T16:44:04.284Z,19.90
2019-05-18T16:46:31.224Z,19.90
2019-05-18T16:48:58.174Z,20.00
2019-05-18T16:51:25.173Z,20.10
2019-05-18T16:53:52.100Z,20.10
2019-05-18T16:56:19.013Z,20.00
2019-05-18T16:58:45.968Z,17.60
2019-05-18T17:01:13.038Z,16.80
2019-05-18T17:03:39.961Z,20.00
2019-05-18T17:06:06.901Z,19.50
2019-05-18T17:08:33.948Z,20.00
2019-05-18T17:11:00.908Z,20.00
2019-05-18T17:13:27.857Z,20.00
2019-05-18T17:15:54.782Z,20.00
2019-05-18T17:18:21.724Z,20.00
2019-05-18T17:20:48.694Z,19.90
2019-05-18T17:23:15.617Z,19.50
2019-05-18T17:25:42.794Z,19.30
2019-05-18T17:28:09.795Z,19.20
2019-05-18T17:30:36.765Z,19.00
2019-05-18T17:33:03.732Z,16.90
2019-05-18T17:35:30.677Z,18.80
2019-05-18T17:37:57.603Z,18.50
2019-05-18T17:40:24.549Z,18.40
2019-05-18T17:42:51.480Z,18.40
2019-05-18T17:45:18.413Z,18.00
2019-05-18T17:47:45.347Z,18.50
2019-05-18T17:50:12.365Z,18.20
2019-05-18T17:52:39.310Z,18.10
2019-05-18T17:55:06.400Z,18.00
2019-05-18T17:57:33.341Z,17.90
2019-05-18T18:00:00.283Z,18.00
2019-05-18T18:02:27.261Z,18.10
2019-05-18T18:04:54.383Z,18.20
2019-05-18T18:07:21.141Z,18.20
2019-05-18T18:09:48.084Z,17.30
2019-05-18T18:12:15.103Z,18.10
2019-05-18T18:14:42.033Z,18.00
2019-05-18T18:17:08.994Z,17.90
2019-05-18T18:19:35.976Z,17.80
2019-05-18T18:22:02.936Z,17.60
2019-05-18T18:24:29.929Z,17.60
2019-05-18T18:26:57.349Z,17.50
2019-05-18T18:29:24.290Z,17.50
2019-05-18T18:31:51.229Z,17.50
2019-05-18T18:34:18.189Z,17.50
2019-05-18T18:36:45.129Z,16.40
2019-05-18T18:39:12.032Z,17.40
2019-05-18T18:41:39.059Z,17.20
2019-05-18T18:44:06.147Z,17.30
2019-05-18T18:46:33.160Z,17.20
2019-05-18T18:49:02.211Z,19.30
2019-05-18T18:51:29.133Z,17.30
2019-05-18T18:53:56.128Z,17.30
2019-05-18T18:56:23.378Z,17.30
2019-05-18T18:58:50.364Z,17.30
2019-05-18T19:01:17.281Z,17.20
2019-05-18T19:06:18.818Z,17.10
2019-05-18T19:08:45.749Z,16.20
2019-05-18T19:11:12.682Z,16.70
2019-05-18T19:13:39.759Z,16.70
2019-05-18T19:16:06.654Z,16.70
2019-05-18T19:18:33.605Z,16.90
2019-05-18T19:21:00.529Z,16.90
2019-05-18T19:23:27.460Z,17.00
2019-05-18T19:25:54.434Z,17.00
2019-05-18T19:28:21.626Z,17.00
2019-05-18T19:30:48.628Z,17.00
2019-05-18T19:33:15.544Z,17.00
2019-05-18T19:35:42.518Z,16.80
2019-05-18T19:38:09.463Z,16.60
2019-05-18T19:40:36.388Z,16.30
2019-05-18T19:43:03.389Z,16.50
2019-05-18T19:45:30.337Z,16.50
2019-05-18T19:47:57.280Z,16.50
2019-05-18T19:50:24.238Z,16.40
2019-05-18T19:52:51.217Z,16.50
2019-05-18T19:55:18.137Z,16.50
2019-05-18T19:57:45.109Z,16.30
2019-05-18T20:00:12.120Z,16.40
2019-05-18T20:02:39.008Z,16.30
2019-05-18T20:05:08.415Z,16.30
2019-05-18T20:07:33.009Z,16.40
2019-05-18T20:09:59.952Z,16.30
2019-05-18T20:12:26.876Z,16.30
2019-05-18T20:14:53.847Z,16.40
2019-05-18T20:17:20.785Z,16.40
2019-05-18T20:19:47.744Z,15.50
2019-05-18T20:22:14.678Z,14.70
2019-05-18T20:24:41.618Z,13.40
2019-05-18T20:27:08.585Z,15.90
2019-05-18T20:29:37.766Z,15.80
2019-05-18T20:32:04.732Z,15.70
2019-05-18T20:34:31.673Z,15.70
2019-05-18T20:36:58.612Z,15.60
2019-05-18T20:39:25.536Z,15.60
2019-05-18T20:41:52.517Z,15.70
2019-05-18T20:44:19.448Z,15.80
2019-05-18T20:46:46.389Z,15.90
2019-05-18T20:49:13.334Z,15.70
2019-05-18T20:51:40.281Z,15.80
2019-05-18T20:54:07.204Z,15.80
2019-05-18T20:56:34.141Z,15.90
2019-05-18T20:59:01.083Z,15.90
2019-05-18T21:01:28.025Z,15.90
2019-05-18T21:03:54.977Z,15.80
2019-05-18T21:06:21.954Z,15.90
2019-05-18T21:08:48.900Z,15.60
2019-05-18T21:11:15.830Z,15.40
2019-05-18T21:13:42.784Z,15.10
2019-05-18T21:16:09.716Z,15.00
2019-05-18T21:18:36.666Z,15.00
2019-05-18T21:21:03.638Z,14.90
2019-05-18T21:23:30.574Z,15.00
2019-05-18T21:25:57.519Z,15.00
2019-05-18T21:28:24.464Z,15.00
2019-05-18T21:30:52.088Z,15.00
2019-05-18T21:33:19.015Z,15.20
2019-05-18T21:35:45.952Z,15.50
2019-05-18T21:38:12.881Z,15.20
2019-05-18T21:40:39.848Z,15.30
2019-05-18T21:43:06.813Z,15.30
2019-05-18T21:45:33.865Z,15.30
2019-05-18T21:48:00.812Z,15.30
2019-05-18T21:50:27.790Z,15.40
2019-05-18T21:52:54.732Z,15.40
2019-05-18T21:55:21.648Z,15.30
2019-05-18T21:57:48.603Z,15.20
2019-05-18T22:00:15.556Z,13.90
2019-05-18T22:02:42.544Z,15.20
2019-05-18T22:05:09.491Z,15.20
2019-05-18T22:07:36.447Z,15.00
2019-05-18T22:10:04.257Z,14.70
2019-05-18T22:12:31.199Z,14.80
2019-05-18T22:14:58.135Z,14.70
2019-05-18T22:17:25.100Z,14.60
2019-05-18T22:19:52.052Z,13.60
2019-05-18T22:22:18.989Z,14.60
2019-05-18T22:24:45.929Z,14.60
2019-05-18T22:27:12.885Z,14.70
2019-05-18T22:29:39.806Z,14.70
2019-05-18T22:32:07.992Z,14.70
2019-05-18T22:34:34.929Z,14.70
2019-05-18T22:37:01.865Z,14.70
2019-05-18T22:39:28.791Z,14.70
2019-05-18T22:41:55.768Z,14.70
2019-05-18T22:44:22.692Z,14.80
2019-05-18T22:46:49.639Z,14.80
2019-05-18T22:49:16.600Z,15.00
2019-05-18T22:51:43.618Z,14.90
2019-05-18T22:54:10.742Z,14.90
2019-05-18T22:56:37.709Z,14.90
2019-05-18T22:59:04.635Z,14.90
2019-05-18T23:01:31.576Z,16.00
2019-05-18T23:03:58.524Z,14.80
2019-05-18T23:06:25.493Z,14.90
2019-05-18T23:08:52.442Z,14.90
2019-05-18T23:11:19.422Z,14.90
2019-05-18T23:13:46.390Z,14.50
2019-05-18T23:16:13.311Z,14.90
2019-05-18T23:18:54.307Z,15.40
2019-05-18T23:21:07.282Z,14.70
2019-05-18T23:23:34.253Z,14.70
2019-05-18T23:26:01.209Z,14.70
2019-05-18T23:28:28.135Z,14.70
2019-05-18T23:30:55.065Z,14.60
2019-05-18T23:33:22.153Z,14.70
2019-05-18T23:35:49.080Z,14.70
2019-05-18T23:38:16.010Z,14.70
2019-05-18T23:40:42.976Z,14.80
2019-05-18T23:43:09.907Z,14.60
2019-05-18T23:45:36.840Z,14.40
2019-05-18T23:48:03.813Z,14.40
2019-05-18T23:50:30.731Z,14.50
2019-05-18T23:52:57.672Z,14.60
2019-05-18T23:55:24.604Z,14.60
2019-05-18T23:57:51.572Z,14.50
